KFOK 070853Z AUTO 00000KT 10SM CLR 03/01 A2993 RMK AO2 SLP136 T00330011 56004 $

KFOK 070753Z AUTO 34005KT 10SM CLR 06/02 A2993 RMK AO2 SLP136 T00560017 $

KFOK 070653Z AUTO 34006KT 10SM CLR 06/02 A2993 RMK AO2 SLP136 T00560017 $

KFOK 070553Z AUTO 32003KT 10SM CLR 04/02 A2994 RMK AO2 SLP140 T00390022 10111 20039 58007 $

KFOK 070453Z AUTO 00000KT 10SM CLR 05/04 A2996 RMK AO2 SLP144 T00500039 401830050 $

KFOK 070353Z AUTO 00000KT 10SM CLR 06/04 A2996 RMK AO2 SLP146 T00610044 $

KFOK 070253Z 00000KT 10SM CLR 08/06 A2997 RMK AO2 SLP147 T00830056 51016 $

KFOK 070153Z 00000KT 10SM CLR 08/06 A2996 RMK AO2 SLP146 T00830056